Time;durP1;ratioP1;P1;durP2;ratioP2;P2;SDS_P1;SDS_P2;PMS_P1;PMS_P2;Temp;Humidity;BMP_temperature;BMP_pressure;BME280_temperature;BME280_humidity;BME280_pressure;Samples;Min_cycle;Max_cycle;Signal;HPM_P1;HPM_P2
2022/12/25 00:01:53;;;;;;;32.28;23.20;;;12.50;99.90;;;;;;4951649;28;20680;-78
2022/12/25 00:04:20;;;;;;;35.40;21.17;;;12.50;99.90;;;;;;4965703;28;20142;-77
2022/12/25 00:06:48;;;;;;;28.90;21.02;;;12.50;99.90;;;;;;4959632;28;20512;-77
2022/12/25 00:09:16;;;;;;;36.35;19.83;;;12.50;99.90;;;;;;4969941;28;20401;-77
2022/12/25 00:11:43;;;;;;;31.30;20.42;;;12.50;99.90;;;;;;4967047;28;20046;-77
2022/12/25 00:14:11;;;;;;;28.50;20.40;;;12.50;99.90;;;;;;4967960;28;20061;-77
2022/12/25 00:16:39;;;;;;;36.33;22.98;;;12.50;99.90;;;;;;4960540;28;20126;-77
2022/12/25 00:19:06;;;;;;;34.25;22.10;;;12.40;99.90;;;;;;4970126;28;20113;-77
2022/12/25 00:21:34;;;;;;;35.30;24.80;;;12.40;99.90;;;;;;4985765;28;20066;-78
2022/12/25 00:24:02;;;;;;;39.22;24.67;;;12.40;99.90;;;;;;4988750;28;20133;-77
2022/12/25 00:26:30;;;;;;;41.60;26.45;;;12.40;99.90;;;;;;4979696;28;20125;-77
2022/12/25 00:28:57;;;;;;;36.30;25.38;;;12.40;99.90;;;;;;4952811;28;20149;-76
2022/12/25 00:31:25;;;;;;;31.98;25.08;;;12.40;99.90;;;;;;4952347;28;20078;-76
2022/12/25 00:33:53;;;;;;;40.38;26.60;;;12.40;99.90;;;;;;4954082;28;20094;-76
2022/12/25 00:36:21;;;;;;;36.92;24.77;;;12.40;99.90;;;;;;4960037;28;20043;-76
2022/12/25 00:38:49;;;;;;;31.65;23.58;;;12.40;99.90;;;;;;4955414;28;20039;-76
2022/12/25 00:44:07;;;;;;;34.17;25.00;;;12.40;99.90;;;;;;4973084;28;20125;-76
2022/12/25 00:46:35;;;;;;;36.53;24.30;;;12.40;99.90;;;;;;4972300;28;20489;-76
2022/12/25 00:49:03;;;;;;;30.90;23.10;;;12.40;99.90;;;;;;4972989;28;20497;-76
2022/12/25 00:51:32;;;;;;;38.47;25.85;;;12.40;99.90;;;;;;4972003;28;20457;-76
2022/12/25 00:53:59;;;;;;;35.30;23.00;;;12.40;99.90;;;;;;4971411;28;20496;-75
2022/12/25 00:56:27;;;;;;;37.55;24.92;;;12.40;99.90;;;;;;4964019;28;20051;-76
2022/12/25 00:58:55;;;;;;;39.05;23.85;;;12.40;99.90;;;;;;4969878;28;20070;-76
2022/12/25 01:01:22;;;;;;;37.72;25.45;;;12.40;99.90;;;;;;4971313;28;20468;-76
2022/12/25 01:03:50;;;;;;;31.30;21.83;;;12.40;99.90;;;;;;4972092;28;20133;-76
2022/12/25 01:06:17;;;;;;;34.42;22.75;;;12.40;99.90;;;;;;4966308;28;20486;-76
2022/12/25 01:11:31;;;;;;;29.77;20.23;;;12.40;99.90;;;;;;4971285;28;20071;-77
2022/12/25 01:13:59;;;;;;;33.20;22.27;;;12.40;99.90;;;;;;4970825;28;20096;-76
2022/12/25 01:16:27;;;;;;;28.17;19.70;;;12.40;99.90;;;;;;4965460;28;20035;-77
2022/12/25 01:18:55;;;;;;;30.00;21.00;;;12.40;99.90;;;;;;4969998;28;20039;-77
2022/12/25 01:21:23;;;;;;;27.25;17.35;;;12.40;99.90;;;;;;4954443;28;20236;-78
2022/12/25 01:23:51;;;;;;;26.70;18.38;;;12.40;99.90;;;;;;4970319;28;20140;-76
2022/12/25 01:26:21;;;;;;;26.55;17.98;;;12.30;99.90;;;;;;4970723;28;20113;-76
2022/12/25 01:28:50;;;;;;;27.45;18.17;;;12.40;99.90;;;;;;4954312;28;20062;-76
2022/12/25 01:31:20;;;;;;;26.05;18.75;;;12.30;99.90;;;;;;4952538;28;20142;-76
2022/12/25 01:33:48;;;;;;;26.83;17.70;;;12.30;99.90;;;;;;4951203;29;20177;-76
2022/12/25 01:36:19;;;;;;;29.45;18.27;;;12.30;99.90;;;;;;4957151;28;20035;-76
2022/12/25 01:38:47;;;;;;;30.27;20.77;;;12.30;99.90;;;;;;4937698;29;20604;-76
2022/12/25 01:41:18;;;;;;;33.28;21.23;;;12.30;99.90;;;;;;4935611;29;20062;-76
2022/12/25 01:44:08;;;;;;;32.20;20.77;;;12.30;99.90;;;;;;4951645;29;20051;-76
2022/12/25 01:46:35;;;;;;;35.90;22.63;;;12.30;99.90;;;;;;4956954;28;20059;-76
2022/12/25 01:49:10;;;;;;;35.88;22.20;;;12.30;99.90;;;;;;4951757;28;20066;-76
2022/12/25 01:51:42;;;;;;;35.85;20.95;;;12.30;99.90;;;;;;4951903;28;20406;-76
2022/12/25 01:54:18;;;;;;;32.47;22.05;;;12.30;99.90;;;;;;4951168;29;20058;-76
2022/12/25 01:56:48;;;;;;;32.28;20.23;;;12.30;99.90;;;;;;4942372;28;20058;-76
2022/12/25 01:59:19;;;;;;;30.00;22.33;;;12.30;99.90;;;;;;4935048;29;20054;-76
2022/12/25 02:01:48;;;;;;;32.15;20.73;;;12.20;99.90;;;;;;4951947;28;20485;-77
2022/12/25 02:04:49;;;;;;;27.80;20.05;;;12.20;99.90;;;;;;4968522;28;20038;-76
2022/12/25 02:07:20;;;;;;;30.08;20.45;;;12.20;99.90;;;;;;4963230;28;20039;-77
2022/12/25 02:09:48;;;;;;;28.08;19.13;;;12.20;99.90;;;;;;4969974;28;20061;-77
2022/12/25 02:12:25;;;;;;;29.40;20.85;;;12.20;99.90;;;;;;4971488;28;20050;-77
2022/12/25 02:14:56;;;;;;;30.70;20.65;;;12.20;99.90;;;;;;4971455;28;20051;-77
2022/12/25 02:17:33;;;;;;;37.53;20.35;;;12.20;99.90;;;;;;4961601;28;20134;-77
2022/12/25 02:20:12;;;;;;;26.30;18.95;;;12.20;99.90;;;;;;4969552;28;20065;-77
2022/12/25 02:23:17;;;;;;;31.98;20.27;;;12.20;99.90;;;;;;4968520;28;20477;-77
2022/12/25 02:26:03;;;;;;;31.48;21.67;;;12.20;99.90;;;;;;4969642;28;20616;-76
2022/12/25 02:28:51;;;;;;;30.98;20.55;;;12.20;99.90;;;;;;4980242;28;20039;-77
2022/12/25 02:31:33;;;;;;;30.77;20.95;;;12.20;99.90;;;;;;4953389;28;20145;-76
2022/12/25 02:34:18;;;;;;;26.27;21.05;;;12.20;99.90;;;;;;4969506;28;20390;-77
2022/12/25 02:37:03;;;;;;;39.97;22.35;;;12.20;99.90;;;;;;4971164;28;20046;-77
2022/12/25 03:11:29;;;;;;;27.85;20.00;;;12.00;99.90;;;;;;4964698;28;20046;-77
2022/12/25 03:11:46;;;;;;;25.63;16.63;;;11.90;99.90;;;;;;4969752;28;20050;-76
2022/12/25 03:17:00;;;;;;;25.25;17.05;;;11.90;99.90;;;;;;4969813;28;20042;-76
2022/12/25 03:27:58;;;;;;;23.38;16.70;;;11.90;99.90;;;;;;4960851;28;20047;-76
2022/12/25 03:35:21;;;;;;;28.05;18.73;;;11.90;99.90;;;;;;4969888;28;20062;-77
2022/12/25 04:38:34;;;;;;;;;;;11.80;99.90;;;;;;4962754;28;20043;-77
2022/12/25 04:41:02;;;;;;;29.02;17.77;;;11.80;99.90;;;;;;4967801;28;19929;-77
2022/12/25 04:43:30;;;;;;;24.40;15.73;;;11.90;99.90;;;;;;4971864;28;20078;-77
2022/12/25 04:45:59;;;;;;;27.75;18.88;;;11.90;99.90;;;;;;4972946;28;20051;-77
2022/12/25 04:48:29;;;;;;;25.88;16.10;;;11.90;99.90;;;;;;4960681;28;20461;-77
2022/12/25 04:50:56;;;;;;;27.70;16.25;;;11.80;99.90;;;;;;4953952;28;20066;-76
2022/12/25 04:53:24;;;;;;;20.85;13.90;;;11.70;99.90;;;;;;4952297;29;20114;-77
2022/12/25 04:56:00;;;;;;;17.60;14.43;;;11.50;99.90;;;;;;4953406;28;20398;-76
2022/12/25 04:58:28;;;;;;;18.05;13.45;;;11.30;99.90;;;;;;4960982;28;20210;-76
2022/12/25 05:00:59;;;;;;;25.70;15.15;;;11.20;99.90;;;;;;4951064;29;20126;-76
2022/12/25 05:03:28;;;;;;;21.73;15.32;;;11.10;99.90;;;;;;4951427;29;20130;-76
2022/12/25 05:05:56;;;;;;;24.45;13.90;;;11.10;99.90;;;;;;4952961;28;20051;-77
2022/12/25 05:08:23;;;;;;;25.63;15.40;;;11.00;99.90;;;;;;4961173;28;20490;-76
2022/12/25 05:10:51;;;;;;;37.88;15.40;;;11.00;99.90;;;;;;4952991;28;20043;-76
2022/12/25 05:13:18;;;;;;;22.60;15.13;;;11.00;99.90;;;;;;4952025;28;20052;-76
2022/12/25 05:15:46;;;;;;;31.52;16.25;;;11.00;99.90;;;;;;4953286;28;20061;-76
2022/12/25 05:18:13;;;;;;;19.27;13.30;;;10.90;99.90;;;;;;4968729;28;20089;-76
2022/12/25 05:20:41;;;;;;;23.08;13.95;;;10.70;99.90;;;;;;4971982;28;20058;-76
2022/12/25 05:23:10;;;;;;;20.85;13.98;;;10.70;99.90;;;;;;4970941;28;20051;-76
2022/12/25 05:25:39;;;;;;;22.95;14.20;;;10.50;99.90;;;;;;4970906;28;20085;-76
2022/12/25 05:28:07;;;;;;;21.60;14.15;;;10.40;99.90;;;;;;4947068;28;20054;-76
2022/12/25 05:30:34;;;;;;;21.02;14.73;;;10.40;99.90;;;;;;4970813;28;20058;-76
2022/12/25 05:33:02;;;;;;;33.15;17.42;;;10.40;99.90;;;;;;4972141;28;20414;-76
2022/12/25 05:35:30;;;;;;;25.13;15.20;;;10.40;99.90;;;;;;4970832;28;20068;-76
2022/12/25 05:37:58;;;;;;;20.02;13.43;;;10.40;99.90;;;;;;4962604;28;20134;-76
2022/12/25 05:40:26;;;;;;;18.88;13.88;;;10.30;99.90;;;;;;4970337;28;20050;-76
2022/12/25 05:42:53;;;;;;;24.23;14.10;;;10.30;99.90;;;;;;4971811;28;20089;-76
2022/12/25 05:45:21;;;;;;;23.15;15.50;;;10.30;99.90;;;;;;4971921;28;20046;-76
2022/12/25 05:47:48;;;;;;;21.13;15.00;;;10.30;99.90;;;;;;4963640;28;20117;-76
2022/12/25 05:50:16;;;;;;;18.67;13.32;;;10.30;99.90;;;;;;4971843;28;20073;-76
2022/12/25 05:52:43;;;;;;;21.30;12.88;;;10.30;99.90;;;;;;4971866;28;20489;-76
2022/12/25 05:55:11;;;;;;;22.67;13.93;;;10.40;99.90;;;;;;4971109;28;20043;-76
2022/12/25 05:57:38;;;;;;;25.08;15.57;;;10.40;99.90;;;;;;4961525;28;20324;-76
2022/12/25 06:00:06;;;;;;;19.58;14.25;;;10.50;99.90;;;;;;4953724;28;20046;-76
2022/12/25 06:02:38;;;;;;;22.13;14.48;;;10.60;99.90;;;;;;4970350;28;20069;-76
2022/12/25 06:05:06;;;;;;;25.05;17.05;;;10.60;99.90;;;;;;4961571;28;20043;-76
2022/12/25 06:07:34;;;;;;;30.73;17.30;;;10.70;99.90;;;;;;4954414;28;20150;-77
2022/12/25 06:10:01;;;;;;;26.50;16.88;;;10.80;99.90;;;;;;4966069;28;20050;-77
2022/12/25 06:12:29;;;;;;;30.02;18.27;;;10.90;99.90;;;;;;4970472;28;20503;-76
2022/12/25 06:14:56;;;;;;;26.10;16.52;;;11.00;99.90;;;;;;4962628;28;20043;-76
2022/12/25 06:17:25;;;;;;;25.05;17.20;;;11.00;99.90;;;;;;4953282;28;20482;-77
2022/12/25 06:19:53;;;;;;;25.13;16.33;;;11.00;99.90;;;;;;4969744;28;20062;-76
2022/12/25 06:22:21;;;;;;;26.73;16.10;;;11.10;99.90;;;;;;4971174;28;20554;-76
2022/12/25 06:24:48;;;;;;;25.10;17.85;;;11.10;99.90;;;;;;4964401;28;20047;-76
2022/12/25 06:27:15;;;;;;;24.42;16.30;;;11.20;99.90;;;;;;4952093;28;20482;-77
2022/12/25 06:29:43;;;;;;;24.73;15.73;;;11.20;99.90;;;;;;4951284;28;20066;-76
2022/12/25 06:32:10;;;;;;;23.38;16.75;;;11.20;99.90;;;;;;4949651;29;20521;-76
2022/12/25 06:34:38;;;;;;;29.00;16.75;;;11.20;99.90;;;;;;4957464;28;20109;-77
2022/12/25 06:37:05;;;;;;;26.13;17.33;;;11.20;99.90;;;;;;4971093;28;20046;-76
2022/12/25 06:39:33;;;;;;;28.13;16.80;;;11.30;99.90;;;;;;4947679;28;20062;-76
2022/12/25 06:42:00;;;;;;;29.98;16.38;;;11.30;99.90;;;;;;4970019;28;20540;-76
2022/12/25 06:44:29;;;;;;;27.70;18.17;;;11.30;99.90;;;;;;4968873;28;20405;-77
2022/12/25 06:46:56;;;;;;;22.98;14.52;;;11.40;99.90;;;;;;4969703;28;20047;-76
2022/12/25 06:49:24;;;;;;;30.73;16.55;;;11.50;99.90;;;;;;4970085;28;20101;-76
2022/12/25 06:51:51;;;;;;;24.38;16.08;;;11.60;99.90;;;;;;4967957;28;20528;-76
2022/12/25 06:54:19;;;;;;;29.85;15.70;;;11.60;99.90;;;;;;4967040;28;20043;-77
2022/12/25 06:56:47;;;;;;;22.13;14.35;;;11.70;99.90;;;;;;4945828;28;20176;-76
2022/12/25 06:59:15;;;;;;;25.67;14.57;;;11.80;99.90;;;;;;4970344;28;20524;-76
2022/12/25 07:01:49;;;;;;;24.38;14.88;;;12.00;99.90;;;;;;4952757;28;20508;-76
2022/12/25 07:04:37;;;;;;;21.70;14.63;;;12.30;99.90;;;;;;4969192;28;20047;-76
2022/12/25 07:07:06;;;;;;;22.75;15.38;;;12.70;99.90;;;;;;4965386;28;20047;-76
2022/12/25 07:09:37;;;;;;;20.35;14.13;;;13.00;99.90;;;;;;4970675;28;20055;-76
2022/12/25 07:12:22;;;;;;;27.77;15.85;;;13.40;99.90;;;;;;4969197;28;20145;-76
2022/12/25 07:14:52;;;;;;;21.70;14.38;;;13.60;99.90;;;;;;4965241;28;20498;-76
2022/12/25 07:17:20;;;;;;;24.35;14.25;;;14.00;99.90;;;;;;4966897;28;20458;-77
2022/12/25 07:19:48;;;;;;;18.35;13.68;;;14.50;99.90;;;;;;4952710;28;20473;-76
2022/12/25 07:22:16;;;;;;;20.10;13.93;;;15.00;99.90;;;;;;4969897;28;20043;-76
2022/12/25 07:24:43;;;;;;;17.70;12.43;;;15.10;99.90;;;;;;4969979;28;20042;-76
2022/12/25 07:27:11;;;;;;;20.02;13.60;;;15.00;99.90;;;;;;4970243;28;20505;-76
2022/12/25 07:29:39;;;;;;;19.55;12.05;;;15.10;99.90;;;;;;4969056;28;20055;-76
2022/12/25 07:32:07;;;;;;;20.95;12.68;;;15.40;99.90;;;;;;4969767;28;20054;-76
2022/12/25 07:34:34;;;;;;;20.20;12.65;;;16.30;99.90;;;;;;4967625;28;20994;-76
2022/12/25 07:37:02;;;;;;;16.90;12.25;;;17.40;99.90;;;;;;4962243;28;20327;-76
2022/12/25 07:39:30;;;;;;;15.35;11.43;;;18.40;99.90;;;;;;4969327;28;20054;-76
2022/12/25 07:41:57;;;;;;;16.60;10.70;;;19.20;99.90;;;;;;4970073;28;20050;-76
2022/12/25 07:44:26;;;;;;;17.92;11.48;;;19.80;99.90;;;;;;4970243;28;20085;-76
2022/12/25 07:46:54;;;;;;;15.00;9.93;;;20.60;99.90;;;;;;4962080;28;20046;-76
2022/12/25 07:49:22;;;;;;;13.60;10.68;;;21.30;99.90;;;;;;4968815;28;20070;-76
2022/12/25 07:51:49;;;;;;;14.27;9.90;;;21.60;99.90;;;;;;4969903;28;20045;-76
2022/12/25 07:54:17;;;;;;;16.80;9.88;;;21.90;99.90;;;;;;4969134;28;20471;-76
2022/12/25 07:56:45;;;;;;;15.05;9.13;;;22.00;99.90;;;;;;4962655;28;20121;-76
2022/12/25 07:59:12;;;;;;;16.70;10.10;;;22.10;99.90;;;;;;4970118;28;20046;-76
2022/12/25 08:01:40;;;;;;;13.45;9.00;;;22.10;99.90;;;;;;4968758;28;20413;-76
2022/12/25 08:04:10;;;;;;;15.25;9.63;;;22.00;99.90;;;;;;4970300;28;20130;-76
2022/12/25 08:06:38;;;;;;;15.02;9.63;;;21.70;99.90;;;;;;4962463;28;20468;-76
2022/12/25 08:09:11;;;;;;;15.52;9.32;;;21.50;99.90;;;;;;4952761;28;20062;-76
2022/12/25 08:11:43;;;;;;;14.23;10.85;;;21.30;99.90;;;;;;4969870;28;20073;-76
2022/12/25 08:14:10;;;;;;;11.75;8.70;;;21.20;99.90;;;;;;4965930;28;20069;-76
2022/12/25 08:16:41;;;;;;;12.43;9.73;;;21.10;99.90;;;;;;4960594;28;20050;-76
2022/12/25 08:19:09;;;;;;;15.52;10.25;;;21.00;99.90;;;;;;4968080;28;20057;-75
2022/12/25 08:21:37;;;;;;;14.07;9.32;;;20.90;99.90;;;;;;4968650;28;20043;-76
2022/12/25 08:24:05;;;;;;;13.82;10.15;;;20.80;99.90;;;;;;4969929;28;20047;-76
2022/12/25 08:26:33;;;;;;;12.25;8.98;;;20.80;99.90;;;;;;4962497;28;20047;-76
2022/12/25 08:29:01;;;;;;;16.77;10.40;;;20.70;99.90;;;;;;4969828;28;20481;-76
2022/12/25 08:31:29;;;;;;;14.13;10.00;;;20.60;99.90;;;;;;4968957;28;20066;-76
2022/12/25 08:33:58;;;;;;;15.88;11.02;;;20.40;99.90;;;;;;4964760;28;20129;-79
2022/12/25 08:36:26;;;;;;;15.75;9.80;;;20.20;99.90;;;;;;4962864;28;20051;-78
2022/12/25 08:38:53;;;;;;;12.40;9.80;;;20.00;99.90;;;;;;4968401;28;20070;-80
2022/12/25 08:41:25;;;;;;;14.85;10.35;;;19.80;99.90;;;;;;4967954;28;20051;-78
2022/12/25 08:43:53;;;;;;;17.45;11.27;;;19.60;99.90;;;;;;4964638;28;20047;-78
2022/12/25 08:46:20;;;;;;;15.40;11.23;;;19.40;99.90;;;;;;4956354;28;20043;-80
2022/12/25 08:48:49;;;;;;;20.83;11.32;;;19.20;99.90;;;;;;4957615;28;20507;-79
2022/12/25 08:51:19;;;;;;;18.85;12.50;;;19.10;99.90;;;;;;4958306;28;20042;-80
2022/12/25 08:53:48;;;;;;;17.65;11.60;;;19.00;99.90;;;;;;4942398;29;20043;-80
2022/12/25 08:56:17;;;;;;;17.13;11.80;;;18.90;99.90;;;;;;4970455;28;20061;-80
2022/12/25 08:58:46;;;;;;;19.33;12.52;;;18.90;99.90;;;;;;4967275;28;20054;-80
2022/12/25 09:01:13;;;;;;;18.95;12.40;;;18.90;99.90;;;;;;4959095;28;20505;-79
2022/12/25 09:03:42;;;;;;;20.20;12.55;;;18.90;99.90;;;;;;4959805;28;20071;-79
2022/12/25 09:06:12;;;;;;;17.83;11.73;;;19.00;99.90;;;;;;4965829;28;20050;-80
2022/12/25 09:08:40;;;;;;;17.40;11.82;;;19.00;99.90;;;;;;4963400;28;20113;-78
2022/12/25 09:11:13;;;;;;;17.38;12.02;;;19.10;99.90;;;;;;4963515;28;20105;-80
2022/12/25 09:13:41;;;;;;;21.35;13.40;;;19.10;99.90;;;;;;4968400;28;20504;-79
2022/12/25 09:16:12;;;;;;;19.50;13.85;;;19.30;99.90;;;;;;4967589;28;20122;-80
2022/12/25 09:18:40;;;;;;;17.73;12.45;;;19.30;99.90;;;;;;4968701;28;20378;-79
2022/12/25 09:21:10;;;;;;;18.15;13.60;;;19.20;99.90;;;;;;4984551;28;20130;-79
2022/12/25 09:23:38;;;;;;;16.88;12.80;;;19.10;99.90;;;;;;4967932;28;20046;-80
2022/12/25 09:26:09;;;;;;;21.90;14.15;;;18.90;99.90;;;;;;4980890;28;20042;-79
2022/12/25 09:28:37;;;;;;;20.52;14.60;;;18.70;99.90;;;;;;4966185;28;20071;-80
2022/12/25 09:31:05;;;;;;;19.98;14.05;;;18.60;99.90;;;;;;4968609;28;20082;-80
2022/12/25 09:33:32;;;;;;;23.15;13.80;;;18.50;99.90;;;;;;4961817;28;20059;-82
2022/12/25 09:36:03;;;;;;;21.20;15.82;;;18.30;99.90;;;;;;4966323;28;20287;-78
2022/12/25 09:38:33;;;;;;;20.55;13.38;;;18.10;99.90;;;;;;4967661;28;20122;-80
2022/12/25 09:41:22;;;;;;;19.98;13.32;;;17.90;99.90;;;;;;4968075;28;20078;-79
2022/12/25 09:44:14;;;;;;;18.52;13.73;;;17.70;99.90;;;;;;4940157;28;20525;-79
2022/12/25 09:47:00;;;;;;;18.67;13.73;;;17.50;99.90;;;;;;4957036;28;20549;-77
2022/12/25 09:50:10;;;;;;;21.23;13.85;;;17.50;99.90;;;;;;4953095;28;20094;-75
2022/12/25 09:52:44;;;;;;;21.20;13.48;;;17.60;99.90;;;;;;4940372;28;20070;-79
2022/12/25 09:55:25;;;;;;;16.88;12.18;;;17.70;99.90;;;;;;4967035;28;20065;-79
2022/12/25 09:57:57;;;;;;;19.20;13.05;;;18.00;99.90;;;;;;4968074;28;20047;-79
2022/12/25 10:00:53;;;;;;;19.52;13.05;;;18.20;99.90;;;;;;4966151;28;20047;-79
2022/12/25 10:03:59;;;;;;;19.37;12.23;;;18.30;99.90;;;;;;4951933;28;20057;-78
2022/12/25 10:06:33;;;;;;;22.15;13.43;;;18.20;99.90;;;;;;4965032;28;20561;-78
2022/12/25 10:09:06;;;;;;;22.92;13.27;;;18.30;99.90;;;;;;4952677;28;20049;-75
2022/12/25 10:11:33;;;;;;;19.10;13.15;;;18.20;99.90;;;;;;4953555;28;20051;-76
2022/12/25 10:14:07;;;;;;;32.97;19.38;;;18.30;99.90;;;;;;4950586;28;20645;-76
2022/12/25 10:16:53;;;;;;;21.58;14.45;;;18.30;99.90;;;;;;4925635;29;20062;-76
2022/12/25 10:19:58;;;;;;;22.20;13.48;;;18.40;99.90;;;;;;4951718;28;20426;-76
2022/12/25 10:22:36;;;;;;;19.52;12.02;;;18.50;99.90;;;;;;4935273;29;20058;-77
2022/12/25 10:25:07;;;;;;;19.02;12.00;;;18.60;99.90;;;;;;4953229;28;20494;-76
2022/12/25 10:27:41;;;;;;;18.80;11.25;;;18.60;99.90;;;;;;4953894;28;20094;-77
2022/12/25 10:30:21;;;;;;;17.70;11.13;;;18.50;99.90;;;;;;4953821;28;20074;-76
2022/12/25 10:32:49;;;;;;;13.90;9.95;;;18.40;99.90;;;;;;4950284;28;20070;-77
2022/12/25 10:35:23;;;;;;;15.75;9.38;;;18.40;99.90;;;;;;4955423;28;20046;-78
2022/12/25 10:38:00;;;;;;;16.50;11.50;;;18.30;99.90;;;;;;4951839;28;20682;-78
2022/12/25 10:40:56;;;;;;;14.15;9.57;;;18.20;99.90;;;;;;4918334;29;20055;-78
2022/12/25 10:43:54;;;;;;;14.45;8.88;;;18.10;99.90;;;;;;4951166;28;20077;-79
2022/12/25 10:46:25;;;;;;;12.70;8.98;;;18.20;99.90;;;;;;4958091;28;20079;-83
2022/12/25 10:48:59;;;;;;;13.65;9.02;;;18.40;99.90;;;;;;4951803;28;20134;-82
2022/12/25 10:51:36;;;;;;;12.70;8.40;;;18.40;99.90;;;;;;4959631;28;20047;-80
2022/12/25 10:54:21;;;;;;;13.57;8.23;;;18.50;99.90;;;;;;4970782;28;20050;-79
2022/12/25 10:56:55;;;;;;;9.02;6.60;;;18.60;99.90;;;;;;4970398;28;20445;-78
2022/12/25 10:59:28;;;;;;;10.52;7.45;;;18.80;99.90;;;;;;4969375;28;20042;-77
2022/12/25 11:02:11;;;;;;;19.25;9.55;;;18.90;99.90;;;;;;4970157;28;20046;-78
2022/12/25 11:04:39;;;;;;;14.00;9.90;;;18.90;99.90;;;;;;4970682;28;20039;-78
2022/12/25 11:07:13;;;;;;;12.98;6.68;;;18.90;99.90;;;;;;4959220;28;20055;-77
2022/12/25 11:09:55;;;;;;;12.05;6.78;;;19.00;99.90;;;;;;4969018;28;20067;-78
2022/12/25 11:12:36;;;;;;;9.45;6.35;;;19.20;99.90;;;;;;4967011;28;20606;-78
2022/12/25 11:15:44;;;;;;;9.35;6.07;;;19.20;99.90;;;;;;4968376;28;20134;-77
2022/12/25 11:18:21;;;;;;;9.98;6.30;;;19.20;99.90;;;;;;4889519;29;20415;-79
2022/12/25 11:21:14;;;;;;;6.40;4.78;;;19.20;99.90;;;;;;4891934;29;20479;-77
2022/12/25 11:23:55;;;;;;;8.02;5.78;;;19.20;99.90;;;;;;4923454;29;20066;-78
2022/12/25 11:26:22;;;;;;;7.20;5.00;;;19.40;99.90;;;;;;4962746;28;20091;-77
2022/12/25 11:28:51;;;;;;;6.28;4.38;;;19.50;99.90;;;;;;4968960;28;20129;-78
2022/12/25 11:31:21;;;;;;;9.18;4.80;;;19.60;99.90;;;;;;4968752;28;20061;-77
2022/12/25 11:34:11;;;;;;;7.82;5.05;;;19.70;99.90;;;;;;4968402;28;20054;-76
2022/12/25 11:36:50;;;;;;;9.80;5.32;;;19.50;99.90;;;;;;4960276;28;20055;-78
2022/12/25 11:39:23;;;;;;;8.73;5.38;;;19.40;99.90;;;;;;4948619;29;20055;-77
2022/12/25 11:42:01;;;;;;;7.13;5.13;;;19.50;99.90;;;;;;4933192;29;20051;-77
2022/12/25 11:44:53;;;;;;;6.30;4.20;;;19.40;99.90;;;;;;4953665;28;20547;-77
2022/12/25 11:47:45;;;;;;;11.00;5.30;;;19.20;99.90;;;;;;4963898;28;20394;-77
2022/12/25 11:50:22;;;;;;;9.05;5.00;;;19.30;99.90;;;;;;4962887;28;20409;-77
2022/12/25 11:52:52;;;;;;;8.13;4.97;;;19.30;99.90;;;;;;4946751;28;20042;-77
2022/12/25 11:55:53;;;;;;;7.95;6.45;;;19.10;99.90;;;;;;4967241;28;20390;-77
2022/12/25 11:58:38;;;;;;;6.10;4.60;;;19.00;99.90;;;;;;4940022;28;20047;-77
2022/12/25 12:01:31;;;;;;;6.65;4.63;;;19.00;99.90;;;;;;4964081;28;20213;-77
2022/12/25 12:04:01;;;;;;;8.43;4.90;;;19.00;99.90;;;;;;4968725;28;20043;-78
2022/12/25 12:07:07;;;;;;;6.90;4.78;;;19.20;99.90;;;;;;4963483;28;20051;-77
2022/12/25 12:09:40;;;;;;;7.50;5.22;;;19.30;99.90;;;;;;4947800;29;20158;-78
2022/12/25 12:12:49;;;;;;;7.13;5.35;;;19.40;99.90;;;;;;4949538;28;20063;-77
2022/12/25 12:15:35;;;;;;;6.82;4.50;;;19.30;99.90;;;;;;4944634;28;20075;-78
2022/12/25 12:18:26;;;;;;;8.73;5.63;;;19.20;99.90;;;;;;4965169;28;20193;-78
2022/12/25 12:21:16;;;;;;;6.45;4.18;;;19.10;99.90;;;;;;4968197;28;20190;-78
2022/12/25 12:24:02;;;;;;;8.00;5.55;;;19.00;99.90;;;;;;4958057;28;20051;-77
2022/12/25 12:26:36;;;;;;;7.53;4.70;;;19.00;99.90;;;;;;4965693;28;20038;-77
2022/12/25 12:29:07;;;;;;;6.47;5.22;;;19.00;99.90;;;;;;4970951;28;20077;-79
2022/12/25 12:31:39;;;;;;;8.88;5.18;;;18.80;99.90;;;;;;4971368;28;20066;-78
2022/12/25 12:34:23;;;;;;;11.75;7.75;;;18.60;99.90;;;;;;4972745;28;20190;-77
2022/12/25 12:37:04;;;;;;;8.45;5.88;;;18.60;99.90;;;;;;4948747;28;20141;-77
2022/12/25 12:39:38;;;;;;;7.20;5.25;;;18.70;99.90;;;;;;4972275;28;20046;-77
2022/12/25 12:42:15;;;;;;;9.38;5.90;;;18.80;99.90;;;;;;4973111;28;20055;-78
2022/12/25 12:44:45;;;;;;;8.98;6.22;;;18.80;99.90;;;;;;4956108;28;20046;-77
2022/12/25 12:47:37;;;;;;;8.40;5.60;;;18.80;99.90;;;;;;4968371;28;20061;-76
2022/12/25 12:50:06;;;;;;;5.38;4.45;;;18.70;99.90;;;;;;4971904;28;20043;-77
2022/12/25 12:52:37;;;;;;;8.43;5.05;;;18.60;99.90;;;;;;4973204;28;20096;-78
2022/12/25 12:55:11;;;;;;;7.35;5.05;;;18.50;99.90;;;;;;4971408;28;20488;-77
2022/12/25 12:57:40;;;;;;;8.45;6.45;;;18.50;99.90;;;;;;4960526;28;20059;-77
2022/12/25 13:00:15;;;;;;;7.72;5.40;;;18.60;99.90;;;;;;4955500;28;20050;-77
2022/12/25 13:03:08;;;;;;;9.55;6.10;;;18.60;99.90;;;;;;4971413;28;20113;-77
2022/12/25 13:05:44;;;;;;;7.47;4.70;;;18.60;99.90;;;;;;4972710;28;20225;-77
2022/12/25 13:08:24;;;;;;;7.32;5.75;;;18.50;99.90;;;;;;4964126;28;20126;-77
2022/12/25 13:11:14;;;;;;;10.40;5.65;;;18.40;99.90;;;;;;4952974;28;20047;-78
2022/12/25 13:13:44;;;;;;;10.63;5.22;;;18.30;99.90;;;;;;4950918;29;20062;-78
2022/12/25 13:16:32;;;;;;;6.72;4.30;;;18.20;99.90;;;;;;4955334;28;20046;-78
2022/12/25 13:19:05;;;;;;;8.45;4.97;;;18.20;99.90;;;;;;4960653;28;20047;-77
2022/12/25 13:21:33;;;;;;;7.10;4.63;;;18.20;99.90;;;;;;4936226;29;20051;-78
2022/12/25 13:24:07;;;;;;;5.78;4.10;;;18.10;99.90;;;;;;4952986;28;20048;-77
2022/12/25 13:26:37;;;;;;;8.32;4.50;;;18.10;99.90;;;;;;4956829;28;20051;-77
2022/12/25 13:29:05;;;;;;;7.30;4.57;;;17.90;99.90;;;;;;4960804;28;20043;-77
2022/12/25 13:31:40;;;;;;;8.30;5.13;;;17.80;99.90;;;;;;4970750;28;20077;-78
2022/12/25 13:34:39;;;;;;;10.23;5.55;;;17.80;99.90;;;;;;4954646;28;20145;-77
2022/12/25 13:37:12;;;;;;;13.77;6.63;;;17.80;99.90;;;;;;4941510;29;20058;-77
2022/12/25 13:40:00;;;;;;;6.97;5.75;;;17.70;99.90;;;;;;4958406;28;20134;-77
2022/12/25 13:42:35;;;;;;;7.03;5.32;;;17.60;99.90;;;;;;4952240;29;20058;-77
2022/12/25 13:45:13;;;;;;;10.52;6.43;;;17.70;99.90;;;;;;4967781;28;20062;-77
2022/12/25 13:47:44;;;;;;;8.63;6.40;;;17.70;99.90;;;;;;4970748;28;20058;-79
2022/12/25 13:50:15;;;;;;;8.27;5.53;;;17.60;99.90;;;;;;4964449;28;20565;-77
2022/12/25 13:52:43;;;;;;;7.65;5.82;;;17.60;99.90;;;;;;4951699;29;20114;-78
2022/12/25 13:55:28;;;;;;;9.35;6.43;;;17.50;99.90;;;;;;4952254;28;20047;-77
2022/12/25 13:58:01;;;;;;;9.40;6.00;;;17.40;99.90;;;;;;4966208;28;20050;-79
2022/12/25 14:00:47;;;;;;;13.93;6.22;;;17.40;99.90;;;;;;4969817;28;20058;-78
2022/12/25 14:03:38;;;;;;;9.50;5.72;;;17.30;99.90;;;;;;4950966;29;20039;-77
2022/12/25 14:06:19;;;;;;;9.02;5.93;;;17.30;99.90;;;;;;4952007;28;20115;-77
2022/12/25 14:08:47;;;;;;;9.93;7.10;;;17.30;99.90;;;;;;4971023;28;20047;-78
2022/12/25 14:11:19;;;;;;;13.07;8.77;;;17.20;99.90;;;;;;4971955;28;20107;-77
2022/12/25 14:13:51;;;;;;;10.38;7.72;;;17.20;99.90;;;;;;4966259;28;20050;-78
2022/12/25 14:16:20;;;;;;;10.88;7.63;;;17.20;99.90;;;;;;4953292;28;20141;-79
2022/12/25 14:18:55;;;;;;;9.98;6.13;;;17.10;99.90;;;;;;4969990;28;20161;-78
2022/12/25 14:21:27;;;;;;;12.13;9.05;;;17.10;99.90;;;;;;4969780;28;20129;-77
2022/12/25 14:23:55;;;;;;;16.33;11.32;;;17.10;99.90;;;;;;4967246;28;20101;-77
2022/12/25 14:26:28;;;;;;;11.80;7.32;;;17.10;99.90;;;;;;4945639;28;20136;-78
2022/12/25 14:29:16;;;;;;;10.10;7.25;;;16.90;99.90;;;;;;4971325;28;20076;-77
2022/12/25 14:31:46;;;;;;;10.35;7.10;;;16.90;99.90;;;;;;4952860;28;20062;-76
2022/12/25 14:34:21;;;;;;;12.38;7.43;;;16.80;99.90;;;;;;4970333;28;20137;-77
2022/12/25 14:36:52;;;;;;;11.82;8.13;;;16.80;99.90;;;;;;4963956;28;20042;-77
2022/12/25 14:39:39;;;;;;;8.50;6.07;;;16.70;99.90;;;;;;4971402;28;20061;-77
2022/12/25 14:42:20;;;;;;;9.68;6.57;;;16.60;99.90;;;;;;4969507;28;20533;-79
2022/12/25 14:45:06;;;;;;;9.50;6.38;;;16.50;99.90;;;;;;4970493;28;20043;-77
2022/12/25 14:47:50;;;;;;;9.23;7.00;;;16.50;99.90;;;;;;4960790;28;20555;-78
2022/12/25 14:50:27;;;;;;;10.48;8.18;;;16.40;99.90;;;;;;4971056;28;20051;-78
2022/12/25 14:52:56;;;;;;;9.38;7.57;;;16.30;99.90;;;;;;4969570;28;20448;-78
2022/12/25 14:55:26;;;;;;;10.25;7.90;;;16.30;99.90;;;;;;4969787;28;20070;-77
2022/12/25 14:58:06;;;;;;;11.52;7.25;;;16.20;99.90;;;;;;4965154;28;20130;-77